sensor_id;sensor_type;location;lat;lon;timestamp;pressure;altitude;pressure_sealevel;temperature
69704;BMP280;56967;43.538;-5.646;2023-03-23T00:01:10;99865.41;;;17.29
69704;BMP280;56967;43.538;-5.646;2023-03-23T00:03:37;99816.34;;;17.21
69704;BMP280;56967;43.538;-5.646;2023-03-23T00:06:03;99732.50;;;16.19
69704;BMP280;56967;43.538;-5.646;2023-03-23T00:08:38;99152.25;;;15.62
69704;BMP280;56967;43.538;-5.646;2023-03-23T00:11:18;98896.88;;;15.68
69704;BMP280;56967;43.538;-5.646;2023-03-23T00:13:48;98769.56;;;15.64
69704;BMP280;56967;43.538;-5.646;2023-03-23T00:16:20;98710.09;;;15.70
69704;BMP280;56967;43.538;-5.646;2023-03-23T00:18:57;98680.88;;;15.75
69704;BMP280;56967;43.538;-5.646;2023-03-23T00:21:24;98681.88;;;15.66
69704;BMP280;56967;43.538;-5.646;2023-03-23T00:24:14;98586.97;;;15.59
69704;BMP280;56967;43.538;-5.646;2023-03-23T00:26:46;98589.31;;;15.61
69704;BMP280;56967;43.538;-5.646;2023-03-23T00:29:20;98591.41;;;15.50
69704;BMP280;56967;43.538;-5.646;2023-03-23T00:31:49;98562.31;;;15.37
69704;BMP280;56967;43.538;-5.646;2023-03-23T00:34:17;98490.28;;;15.40
69704;BMP280;56967;43.538;-5.646;2023-03-23T00:36:49;98471.63;;;15.45
69704;BMP280;56967;43.538;-5.646;2023-03-23T00:39:15;98539.66;;;15.44
69704;BMP280;56967;43.538;-5.646;2023-03-23T00:41:42;98529.06;;;15.44
69704;BMP280;56967;43.538;-5.646;2023-03-23T00:44:08;98583.28;;;15.33
69704;BMP280;56967;43.538;-5.646;2023-03-23T00:46:34;98497.34;;;15.08
69704;BMP280;56967;43.538;-5.646;2023-03-23T00:48:59;98435.47;;;15.18
69704;BMP280;56967;43.538;-5.646;2023-03-23T00:51:25;98331.88;;;15.02
69704;BMP280;56967;43.538;-5.646;2023-03-23T00:53:51;98337.31;;;15.06
69704;BMP280;56967;43.538;-5.646;2023-03-23T00:56:16;98367.00;;;15.03
69704;BMP280;56967;43.538;-5.646;2023-03-23T00:58:42;98479.69;;;15.04
69704;BMP280;56967;43.538;-5.646;2023-03-23T01:01:08;98488.28;;;15.89
69704;BMP280;56967;43.538;-5.646;2023-03-23T01:03:34;99194.22;;;16.61
69704;BMP280;56967;43.538;-5.646;2023-03-23T01:06:08;99521.44;;;16.71
69704;BMP280;56967;43.538;-5.646;2023-03-23T01:08:39;99573.44;;;16.72
69704;BMP280;56967;43.538;-5.646;2023-03-23T01:11:14;99605.25;;;16.77
69704;BMP280;56967;43.538;-5.646;2023-03-23T01:13:42;99628.09;;;16.73
69704;BMP280;56967;43.538;-5.646;2023-03-23T01:16:08;99657.56;;;16.71
69704;BMP280;56967;43.538;-5.646;2023-03-23T01:18:34;99683.88;;;16.67
69704;BMP280;56967;43.538;-5.646;2023-03-23T01:21:08;99662.69;;;16.62
69704;BMP280;56967;43.538;-5.646;2023-03-23T01:23:34;99689.72;;;16.64
69704;BMP280;56967;43.538;-5.646;2023-03-23T01:26:23;99781.31;;;16.57
69704;BMP280;56967;43.538;-5.646;2023-03-23T01:28:52;99833.03;;;16.59
69704;BMP280;56967;43.538;-5.646;2023-03-23T01:31:19;99838.06;;;16.61
69704;BMP280;56967;43.538;-5.646;2023-03-23T01:33:46;99860.78;;;16.28
69704;BMP280;56967;43.538;-5.646;2023-03-23T01:36:15;99836.47;;;16.11
69704;BMP280;56967;43.538;-5.646;2023-03-23T01:38:42;99832.78;;;16.02
69704;BMP280;56967;43.538;-5.646;2023-03-23T01:41:08;99880.22;;;16.09
69704;BMP280;56967;43.538;-5.646;2023-03-23T01:43:34;99866.66;;;16.20
69704;BMP280;56967;43.538;-5.646;2023-03-23T01:45:59;99975.34;;;16.20
69704;BMP280;56967;43.538;-5.646;2023-03-23T01:48:32;99799.69;;;15.99
69704;BMP280;56967;43.538;-5.646;2023-03-23T01:51:09;99616.13;;;15.84
69704;BMP280;56967;43.538;-5.646;2023-03-23T01:54:07;99602.31;;;15.87
69704;BMP280;56967;43.538;-5.646;2023-03-23T01:56:40;99628.28;;;15.90
69704;BMP280;56967;43.538;-5.646;2023-03-23T01:59:08;99662.22;;;15.83
69704;BMP280;56967;43.538;-5.646;2023-03-23T02:01:35;99653.81;;;15.66
69704;BMP280;56967;43.538;-5.646;2023-03-23T02:04:04;99614.91;;;15.61
69704;BMP280;56967;43.538;-5.646;2023-03-23T02:06:30;99592.69;;;15.62
69704;BMP280;56967;43.538;-5.646;2023-03-23T02:08:55;99612.69;;;15.78
69704;BMP280;56967;43.538;-5.646;2023-03-23T02:11:21;99657.41;;;15.90
69704;BMP280;56967;43.538;-5.646;2023-03-23T02:13:48;99724.97;;;15.87
69704;BMP280;56967;43.538;-5.646;2023-03-23T02:35:46;99880.84;;;15.85
69704;BMP280;56967;43.538;-5.646;2023-03-23T02:38:21;99807.69;;;15.79
69704;BMP280;56967;43.538;-5.646;2023-03-23T02:40:49;99780.38;;;15.84
69704;BMP280;56967;43.538;-5.646;2023-03-23T02:43:20;99783.94;;;15.49
69704;BMP280;56967;43.538;-5.646;2023-03-23T02:45:48;99775.75;;;15.46
69704;BMP280;56967;43.538;-5.646;2023-03-23T02:48:17;99677.75;;;15.51
69704;BMP280;56967;43.538;-5.646;2023-03-23T02:50:47;99710.47;;;15.70
69704;BMP280;56967;43.538;-5.646;2023-03-23T02:53:18;99812.81;;;15.25
69704;BMP280;56967;43.538;-5.646;2023-03-23T02:55:46;99885.66;;;15.23
69704;BMP280;56967;43.538;-5.646;2023-03-23T02:58:14;99889.06;;;15.33
69704;BMP280;56967;43.538;-5.646;2023-03-23T03:00:40;99938.84;;;15.42
69704;BMP280;56967;43.538;-5.646;2023-03-23T03:03:10;99988.91;;;15.43
69704;BMP280;56967;43.538;-5.646;2023-03-23T03:08:29;99997.63;;;15.33
69704;BMP280;56967;43.538;-5.646;2023-03-23T03:11:09;99948.38;;;15.12
69704;BMP280;56967;43.538;-5.646;2023-03-23T03:16:29;99837.44;;;15.51
69704;BMP280;56967;43.538;-5.646;2023-03-23T03:18:59;99886.66;;;15.37
69704;BMP280;56967;43.538;-5.646;2023-03-23T03:21:30;99904.44;;;15.52
69704;BMP280;56967;43.538;-5.646;2023-03-23T03:23:58;99968.25;;;15.60
69704;BMP280;56967;43.538;-5.646;2023-03-23T03:26:27;100000.31;;;15.54
69704;BMP280;56967;43.538;-5.646;2023-03-23T03:28:54;99978.31;;;15.23
69704;BMP280;56967;43.538;-5.646;2023-03-23T03:31:29;99893.06;;;15.36
69704;BMP280;56967;43.538;-5.646;2023-03-23T03:33:56;99891.47;;;15.45
69704;BMP280;56967;43.538;-5.646;2023-03-23T03:36:27;99900.19;;;15.56
69704;BMP280;56967;43.538;-5.646;2023-03-23T03:39:02;99936.47;;;15.60
69704;BMP280;56967;43.538;-5.646;2023-03-23T03:41:34;99925.34;;;15.33
69704;BMP280;56967;43.538;-5.646;2023-03-23T03:44:01;99953.38;;;15.19
69704;BMP280;56967;43.538;-5.646;2023-03-23T03:46:27;99921.63;;;15.24
69704;BMP280;56967;43.538;-5.646;2023-03-23T03:48:55;99964.25;;;15.43
69704;BMP280;56967;43.538;-5.646;2023-03-23T03:51:25;100006.31;;;15.09
69704;BMP280;56967;43.538;-5.646;2023-03-23T03:53:52;100005.03;;;15.26
69704;BMP280;56967;43.538;-5.646;2023-03-23T03:56:17;99951.56;;;15.29
69704;BMP280;56967;43.538;-5.646;2023-03-23T03:58:43;100034.22;;;15.62
69704;BMP280;56967;43.538;-5.646;2023-03-23T04:01:09;100083.78;;;15.66
69704;BMP280;56967;43.538;-5.646;2023-03-23T04:03:39;100080.88;;;15.88
69704;BMP280;56967;43.538;-5.646;2023-03-23T04:06:05;100097.34;;;15.95
69704;BMP280;56967;43.538;-5.646;2023-03-23T04:08:31;100123.28;;;15.88
69704;BMP280;56967;43.538;-5.646;2023-03-23T04:10:57;100142.63;;;15.88
69704;BMP280;56967;43.538;-5.646;2023-03-23T04:13:23;100172.84;;;15.92
69704;BMP280;56967;43.538;-5.646;2023-03-23T04:15:48;100180.56;;;15.99
69704;BMP280;56967;43.538;-5.646;2023-03-23T04:18:15;100192.25;;;16.13
69704;BMP280;56967;43.538;-5.646;2023-03-23T04:20:44;100202.59;;;16.05
69704;BMP280;56967;43.538;-5.646;2023-03-23T04:23:16;100208.34;;;15.81
69704;BMP280;56967;43.538;-5.646;2023-03-23T04:25:46;100203.59;;;15.93
69704;BMP280;56967;43.538;-5.646;2023-03-23T04:28:12;100215.56;;;16.01
69704;BMP280;56967;43.538;-5.646;2023-03-23T04:30:38;100216.88;;;15.98
69704;BMP280;56967;43.538;-5.646;2023-03-23T04:33:04;100215.81;;;15.94
69704;BMP280;56967;43.538;-5.646;2023-03-23T04:35:30;100215.00;;;15.94
69704;BMP280;56967;43.538;-5.646;2023-03-23T04:37:56;100179.97;;;15.72
69704;BMP280;56967;43.538;-5.646;2023-03-23T04:40:23;100074.44;;;15.39
69704;BMP280;56967;43.538;-5.646;2023-03-23T04:42:49;100038.66;;;15.26
69704;BMP280;56967;43.538;-5.646;2023-03-23T04:45:20;99977.38;;;14.92
69704;BMP280;56967;43.538;-5.646;2023-03-23T04:47:51;99891.69;;;15.03
69704;BMP280;56967;43.538;-5.646;2023-03-23T04:50:27;99957.09;;;15.08
69704;BMP280;56967;43.538;-5.646;2023-03-23T04:52:53;99930.56;;;14.98
69704;BMP280;56967;43.538;-5.646;2023-03-23T04:55:22;99911.72;;;14.74
69704;BMP280;56967;43.538;-5.646;2023-03-23T04:57:47;99818.94;;;14.96
69704;BMP280;56967;43.538;-5.646;2023-03-23T05:00:14;99852.28;;;15.17
69704;BMP280;56967;43.538;-5.646;2023-03-23T05:02:42;99888.03;;;15.34
69704;BMP280;56967;43.538;-5.646;2023-03-23T05:05:10;99942.16;;;14.77
69704;BMP280;56967;43.538;-5.646;2023-03-23T05:07:40;99796.97;;;14.85
69704;BMP280;56967;43.538;-5.646;2023-03-23T05:10:07;99821.56;;;15.26
69704;BMP280;56967;43.538;-5.646;2023-03-23T05:12:33;99964.56;;;15.41
69704;BMP280;56967;43.538;-5.646;2023-03-23T05:14:59;99916.84;;;15.11
69704;BMP280;56967;43.538;-5.646;2023-03-23T05:17:25;99886.69;;;15.12
69704;BMP280;56967;43.538;-5.646;2023-03-23T05:19:51;99886.38;;;14.98
69704;BMP280;56967;43.538;-5.646;2023-03-23T05:22:17;99842.75;;;15.16
69704;BMP280;56967;43.538;-5.646;2023-03-23T05:24:43;99891.44;;;15.15
69704;BMP280;56967;43.538;-5.646;2023-03-23T05:27:09;99918.72;;;15.20
69704;BMP280;56967;43.538;-5.646;2023-03-23T05:29:36;99970.09;;;15.24
69704;BMP280;56967;43.538;-5.646;2023-03-23T05:32:03;100034.44;;;15.30
69704;BMP280;56967;43.538;-5.646;2023-03-23T05:34:30;100032.03;;;15.23
69704;BMP280;56967;43.538;-5.646;2023-03-23T05:37:01;100039.72;;;15.30
69704;BMP280;56967;43.538;-5.646;2023-03-23T05:39:29;100083.13;;;15.29
69704;BMP280;56967;43.538;-5.646;2023-03-23T05:41:58;100100.34;;;15.26
69704;BMP280;56967;43.538;-5.646;2023-03-23T05:44:24;100103.19;;;15.15
69704;BMP280;56967;43.538;-5.646;2023-03-23T05:46:49;100126.53;;;15.18
69704;BMP280;56967;43.538;-5.646;2023-03-23T05:49:16;100123.16;;;15.43
69704;BMP280;56967;43.538;-5.646;2023-03-23T05:51:43;100135.59;;;15.42
69704;BMP280;56967;43.538;-5.646;2023-03-23T05:54:09;100157.38;;;15.54
69704;BMP280;56967;43.538;-5.646;2023-03-23T05:56:36;100178.78;;;15.48
69704;BMP280;56967;43.538;-5.646;2023-03-23T05:59:01;100182.94;;;15.18
69704;BMP280;56967;43.538;-5.646;2023-03-23T06:01:28;100139.56;;;15.34
69704;BMP280;56967;43.538;-5.646;2023-03-23T06:03:53;100127.19;;;15.50
69704;BMP280;56967;43.538;-5.646;2023-03-23T06:06:24;100114.97;;;15.49
69704;BMP280;56967;43.538;-5.646;2023-03-23T06:08:50;100153.09;;;15.48
69704;BMP280;56967;43.538;-5.646;2023-03-23T06:11:16;100152.13;;;15.69
69704;BMP280;56967;43.538;-5.646;2023-03-23T06:13:42;100181.78;;;15.66
69704;BMP280;56967;43.538;-5.646;2023-03-23T06:16:08;100186.53;;;15.59
69704;BMP280;56967;43.538;-5.646;2023-03-23T06:18:34;100198.72;;;15.55
69704;BMP280;56967;43.538;-5.646;2023-03-23T06:21:05;100146.56;;;15.04
69704;BMP280;56967;43.538;-5.646;2023-03-23T06:23:31;100125.06;;;14.90
69704;BMP280;56967;43.538;-5.646;2023-03-23T06:25:59;100135.06;;;14.88
69704;BMP280;56967;43.538;-5.646;2023-03-23T06:28:26;100107.72;;;15.19
69704;BMP280;56967;43.538;-5.646;2023-03-23T06:30:52;100135.78;;;15.20
69704;BMP280;56967;43.538;-5.646;2023-03-23T06:33:18;100152.03;;;15.44
69704;BMP280;56967;43.538;-5.646;2023-03-23T06:35:43;100156.34;;;15.70
69704;BMP280;56967;43.538;-5.646;2023-03-23T06:38:09;100178.13;;;15.87
69704;BMP280;56967;43.538;-5.646;2023-03-23T06:40:35;100196.69;;;15.87
69704;BMP280;56967;43.538;-5.646;2023-03-23T06:43:03;100203.84;;;15.92
69704;BMP280;56967;43.538;-5.646;2023-03-23T06:45:30;100220.88;;;15.96
69704;BMP280;56967;43.538;-5.646;2023-03-23T06:47:56;100229.91;;;16.05
69704;BMP280;56967;43.538;-5.646;2023-03-23T06:50:21;100247.31;;;15.91
69704;BMP280;56967;43.538;-5.646;2023-03-23T06:52:49;100236.16;;;15.79
69704;BMP280;56967;43.538;-5.646;2023-03-23T06:55:15;100227.25;;;15.43
69704;BMP280;56967;43.538;-5.646;2023-03-23T06:57:42;100162.16;;;15.52
69704;BMP280;56967;43.538;-5.646;2023-03-23T07:00:11;100114.13;;;15.33
69704;BMP280;56967;43.538;-5.646;2023-03-23T07:02:39;100120.06;;;15.71
69704;BMP280;56967;43.538;-5.646;2023-03-23T07:05:06;100180.31;;;15.95
69704;BMP280;56967;43.538;-5.646;2023-03-23T07:07:32;100204.75;;;16.38
69704;BMP280;56967;43.538;-5.646;2023-03-23T07:09:58;100218.03;;;16.58
69704;BMP280;56967;43.538;-5.646;2023-03-23T07:12:23;100258.63;;;16.69
69704;BMP280;56967;43.538;-5.646;2023-03-23T07:14:49;100288.28;;;16.30
69704;BMP280;56967;43.538;-5.646;2023-03-23T07:17:15;100246.78;;;15.89
69704;BMP280;56967;43.538;-5.646;2023-03-23T07:19:40;100223.78;;;15.99
69704;BMP280;56967;43.538;-5.646;2023-03-23T07:22:07;100229.13;;;16.25
69704;BMP280;56967;43.538;-5.646;2023-03-23T07:24:33;100222.28;;;16.54
69704;BMP280;56967;43.538;-5.646;2023-03-23T07:26:59;100263.13;;;16.93
69704;BMP280;56967;43.538;-5.646;2023-03-23T07:29:25;100234.41;;;16.15
69704;BMP280;56967;43.538;-5.646;2023-03-23T07:31:52;100206.25;;;15.93
69704;BMP280;56967;43.538;-5.646;2023-03-23T07:34:18;100203.41;;;16.35
69704;BMP280;56967;43.538;-5.646;2023-03-23T07:36:44;100232.84;;;17.14
69704;BMP280;56967;43.538;-5.646;2023-03-23T07:39:11;100254.34;;;17.08
69704;BMP280;56967;43.538;-5.646;2023-03-23T07:41:37;100260.09;;;17.40
69704;BMP280;56967;43.538;-5.646;2023-03-23T07:44:03;100301.78;;;17.45
69704;BMP280;56967;43.538;-5.646;2023-03-23T07:46:29;100291.88;;;17.70
69704;BMP280;56967;43.538;-5.646;2023-03-23T07:48:55;100300.75;;;17.30
69704;BMP280;56967;43.538;-5.646;2023-03-23T07:51:22;100287.16;;;17.57
69704;BMP280;56967;43.538;-5.646;2023-03-23T07:53:47;100321.84;;;17.96
69704;BMP280;56967;43.538;-5.646;2023-03-23T07:56:13;100361.66;;;18.11
69704;BMP280;56967;43.538;-5.646;2023-03-23T07:58:41;100404.63;;;18.38
69704;BMP280;56967;43.538;-5.646;2023-03-23T08:01:07;100439.13;;;17.89
69704;BMP280;56967;43.538;-5.646;2023-03-23T08:03:33;100428.56;;;18.38
69704;BMP280;56967;43.538;-5.646;2023-03-23T08:05:59;100443.59;;;18.04
69704;BMP280;56967;43.538;-5.646;2023-03-23T08:08:25;100447.50;;;18.27
69704;BMP280;56967;43.538;-5.646;2023-03-23T08:10:51;100447.56;;;18.75
69704;BMP280;56967;43.538;-5.646;2023-03-23T08:13:16;100475.88;;;19.00
69704;BMP280;56967;43.538;-5.646;2023-03-23T08:15:42;100512.13;;;19.97
69704;BMP280;56967;43.538;-5.646;2023-03-23T08:18:08;100574.50;;;20.54
69704;BMP280;56967;43.538;-5.646;2023-03-23T08:20:34;100581.34;;;21.02
69704;BMP280;56967;43.538;-5.646;2023-03-23T08:23:01;100611.19;;;21.60
69704;BMP280;56967;43.538;-5.646;2023-03-23T08:25:28;100649.59;;;22.96
69704;BMP280;56967;43.538;-5.646;2023-03-23T08:27:56;100654.34;;;22.86
69704;BMP280;56967;43.538;-5.646;2023-03-23T08:30:22;100678.44;;;23.13
69704;BMP280;56967;43.538;-5.646;2023-03-23T08:32:50;100689.09;;;23.84
69704;BMP280;56967;43.538;-5.646;2023-03-23T08:35:17;100701.34;;;24.77
69704;BMP280;56967;43.538;-5.646;2023-03-23T08:37:43;100726.59;;;26.22
69704;BMP280;56967;43.538;-5.646;2023-03-23T08:40:13;100744.41;;;27.13
69704;BMP280;56967;43.538;-5.646;2023-03-23T08:42:41;100777.97;;;28.35
69704;BMP280;56967;43.538;-5.646;2023-03-23T08:45:09;100751.44;;;27.47
69704;BMP280;56967;43.538;-5.646;2023-03-23T08:47:36;100743.81;;;26.29
69704;BMP280;56967;43.538;-5.646;2023-03-23T08:50:06;100744.13;;;25.04
69704;BMP280;56967;43.538;-5.646;2023-03-23T08:52:32;100741.22;;;24.36
69704;BMP280;56967;43.538;-5.646;2023-03-23T08:54:58;100725.22;;;24.00
69704;BMP280;56967;43.538;-5.646;2023-03-23T08:57:25;100721.28;;;23.98
69704;BMP280;56967;43.538;-5.646;2023-03-23T08:59:51;100717.19;;;23.78
69704;BMP280;56967;43.538;-5.646;2023-03-23T09:02:20;100727.69;;;23.30
69704;BMP280;56967;43.538;-5.646;2023-03-23T09:04:45;100735.97;;;23.56
69704;BMP280;56967;43.538;-5.646;2023-03-23T09:07:12;100727.13;;;23.20
69704;BMP280;56967;43.538;-5.646;2023-03-23T09:09:40;100722.84;;;23.05
69704;BMP280;56967;43.538;-5.646;2023-03-23T09:12:07;100721.00;;;22.92
69704;BMP280;56967;43.538;-5.646;2023-03-23T09:14:32;100722.09;;;22.91
69704;BMP280;56967;43.538;-5.646;2023-03-23T09:16:58;100722.00;;;22.69
69704;BMP280;56967;43.538;-5.646;2023-03-23T09:19:23;100722.50;;;22.85
69704;BMP280;56967;43.538;-5.646;2023-03-23T09:21:51;100715.81;;;22.82
69704;BMP280;56967;43.538;-5.646;2023-03-23T09:24:16;100718.59;;;22.63
69704;BMP280;56967;43.538;-5.646;2023-03-23T09:26:42;100718.31;;;22.06
69704;BMP280;56967;43.538;-5.646;2023-03-23T09:29:07;100702.84;;;22.03
69704;BMP280;56967;43.538;-5.646;2023-03-23T09:31:33;100703.59;;;22.03
69704;BMP280;56967;43.538;-5.646;2023-03-23T09:34:01;100685.94;;;22.34
69704;BMP280;56967;43.538;-5.646;2023-03-23T09:36:29;100686.44;;;22.36
69704;BMP280;56967;43.538;-5.646;2023-03-23T09:38:57;100694.38;;;21.96
69704;BMP280;56967;43.538;-5.646;2023-03-23T09:50:11;100710.34;;;23.01
69704;BMP280;56967;43.538;-5.646;2023-03-23T09:52:52;100710.44;;;23.09
69704;BMP280;56967;43.538;-5.646;2023-03-23T09:55:20;100716.25;;;22.76
69704;BMP280;56967;43.538;-5.646;2023-03-23T09:57:52;100709.41;;;23.19
69704;BMP280;56967;43.538;-5.646;2023-03-23T10:03:26;100694.19;;;22.65
69704;BMP280;56967;43.538;-5.646;2023-03-23T10:05:53;100711.34;;;22.91
69704;BMP280;56967;43.538;-5.646;2023-03-23T10:08:22;100714.50;;;23.20
69704;BMP280;56967;43.538;-5.646;2023-03-23T10:13:35;100711.59;;;23.30
69704;BMP280;56967;43.538;-5.646;2023-03-23T10:21:26;100706.00;;;23.40
69704;BMP280;56967;43.538;-5.646;2023-03-23T10:26:35;100700.06;;;23.96
69704;BMP280;56967;43.538;-5.646;2023-03-23T10:29:14;100702.66;;;23.79
69704;BMP280;56967;43.538;-5.646;2023-03-23T10:32:11;100701.06;;;23.56
69704;BMP280;56967;43.538;-5.646;2023-03-23T10:34:56;100700.03;;;23.88
69704;BMP280;56967;43.538;-5.646;2023-03-23T10:37:50;100694.53;;;23.49
69704;BMP280;56967;43.538;-5.646;2023-03-23T10:40:22;100688.50;;;23.43
69704;BMP280;56967;43.538;-5.646;2023-03-23T10:42:49;100684.91;;;23.25
69704;BMP280;56967;43.538;-5.646;2023-03-23T10:45:28;100700.72;;;23.00
69704;BMP280;56967;43.538;-5.646;2023-03-23T10:48:15;100694.38;;;22.96
69704;BMP280;56967;43.538;-5.646;2023-03-23T10:50:44;100687.97;;;22.70
69704;BMP280;56967;43.538;-5.646;2023-03-23T10:53:26;100686.75;;;22.76
69704;BMP280;56967;43.538;-5.646;2023-03-23T10:55:53;100687.53;;;22.63
69704;BMP280;56967;43.538;-5.646;2023-03-23T10:58:34;100698.25;;;22.63
69704;BMP280;56967;43.538;-5.646;2023-03-23T11:01:02;100699.94;;;22.99
69704;BMP280;56967;43.538;-5.646;2023-03-23T11:03:41;100695.84;;;23.02
69704;BMP280;56967;43.538;-5.646;2023-03-23T11:06:32;100694.97;;;23.06
69704;BMP280;56967;43.538;-5.646;2023-03-23T11:09:11;100694.31;;;23.23
69704;BMP280;56967;43.538;-5.646;2023-03-23T11:11:42;100686.66;;;23.52
69704;BMP280;56967;43.538;-5.646;2023-03-23T11:16:59;100676.50;;;23.40
69704;BMP280;56967;43.538;-5.646;2023-03-23T11:19:30;100681.53;;;23.86
69704;BMP280;56967;43.538;-5.646;2023-03-23T11:22:12;100673.75;;;24.07
69704;BMP280;56967;43.538;-5.646;2023-03-23T11:24:45;100670.78;;;24.56
69704;BMP280;56967;43.538;-5.646;2023-03-23T11:27:13;100673.63;;;25.71
69704;BMP280;56967;43.538;-5.646;2023-03-23T11:30:01;100684.44;;;25.62
69704;BMP280;56967;43.538;-5.646;2023-03-23T11:32:32;100673.78;;;25.74
69704;BMP280;56967;43.538;-5.646;2023-03-23T11:35:03;100670.63;;;25.72
69704;BMP280;56967;43.538;-5.646;2023-03-23T11:37:42;100673.41;;;25.93
69704;BMP280;56967;43.538;-5.646;2023-03-23T11:42:42;100667.53;;;25.02
69704;BMP280;56967;43.538;-5.646;2023-03-23T11:48:21;100661.03;;;25.20
69704;BMP280;56967;43.538;-5.646;2023-03-23T11:58:41;100642.78;;;24.09
69704;BMP280;56967;43.538;-5.646;2023-03-23T12:14:39;100632.47;;;23.94
69704;BMP280;56967;43.538;-5.646;2023-03-23T12:22:42;100626.31;;;24.02
69704;BMP280;56967;43.538;-5.646;2023-03-23T12:42:36;100632.84;;;24.83
69704;BMP280;56967;43.538;-5.646;2023-03-23T12:58:25;100600.38;;;23.89
69704;BMP280;56967;43.538;-5.646;2023-03-23T13:03:57;100595.91;;;23.76
69704;BMP280;56967;43.538;-5.646;2023-03-23T13:11:48;100566.91;;;23.34
69704;BMP280;56967;43.538;-5.646;2023-03-23T13:17:24;100559.53;;;23.70
69704;BMP280;56967;43.538;-5.646;2023-03-23T13:22:54;100540.16;;;24.64
69704;BMP280;56967;43.538;-5.646;2023-03-23T13:28:15;100530.38;;;23.47
69704;BMP280;56967;43.538;-5.646;2023-03-23T13:30:53;100529.16;;;23.08
69704;BMP280;56967;43.538;-5.646;2023-03-23T13:33:20;100526.25;;;23.80
69704;BMP280;56967;43.538;-5.646;2023-03-23T13:35:49;100546.78;;;23.76
69704;BMP280;56967;43.538;-5.646;2023-03-23T13:38:27;100548.09;;;23.95
69704;BMP280;56967;43.538;-5.646;2023-03-23T13:40:56;100554.78;;;23.45
69704;BMP280;56967;43.538;-5.646;2023-03-23T13:43:34;100545.00;;;23.40
69704;BMP280;56967;43.538;-5.646;2023-03-23T13:46:24;100539.00;;;23.35
69704;BMP280;56967;43.538;-5.646;2023-03-23T13:49:04;100542.44;;;23.66
69704;BMP280;56967;43.538;-5.646;2023-03-23T14:02:21;100519.78;;;24.63
69704;BMP280;56967;43.538;-5.646;2023-03-23T14:04:44;100516.56;;;24.18
69704;BMP280;56967;43.538;-5.646;2023-03-23T14:07:15;100525.06;;;24.03
69704;BMP280;56967;43.538;-5.646;2023-03-23T14:09:42;100507.69;;;23.08
69704;BMP280;56967;43.538;-5.646;2023-03-23T14:12:18;100492.47;;;22.95
69704;BMP280;56967;43.538;-5.646;2023-03-23T14:14:48;100500.19;;;23.19
69704;BMP280;56967;43.538;-5.646;2023-03-23T14:17:29;100500.72;;;23.21
69704;BMP280;56967;43.538;-5.646;2023-03-23T14:19:57;100505.44;;;23.24
69704;BMP280;56967;43.538;-5.646;2023-03-23T14:22:41;100498.06;;;23.60
69704;BMP280;56967;43.538;-5.646;2023-03-23T14:25:12;100496.00;;;24.05
69704;BMP280;56967;43.538;-5.646;2023-03-23T14:27:44;100498.53;;;24.27
69704;BMP280;56967;43.538;-5.646;2023-03-23T14:30:26;100487.66;;;24.75
69704;BMP280;56967;43.538;-5.646;2023-03-23T14:32:54;100485.75;;;24.50
69704;BMP280;56967;43.538;-5.646;2023-03-23T14:35:29;100480.38;;;24.33
69704;BMP280;56967;43.538;-5.646;2023-03-23T14:37:56;100482.91;;;24.20
69704;BMP280;56967;43.538;-5.646;2023-03-23T14:40:22;100489.88;;;24.39
69704;BMP280;56967;43.538;-5.646;2023-03-23T14:42:50;100489.88;;;24.39
69704;BMP280;56967;43.538;-5.646;2023-03-23T14:45:17;100472.47;;;24.62
69704;BMP280;56967;43.538;-5.646;2023-03-23T14:47:53;100469.63;;;24.67
69704;BMP280;56967;43.538;-5.646;2023-03-23T14:50:30;100480.38;;;24.24
69704;BMP280;56967;43.538;-5.646;2023-03-23T14:53:02;100471.00;;;23.17
69704;BMP280;56967;43.538;-5.646;2023-03-23T14:55:30;100467.38;;;22.91
69704;BMP280;56967;43.538;-5.646;2023-03-23T14:58:06;100465.34;;;23.19
69704;BMP280;56967;43.538;-5.646;2023-03-23T15:00:36;100472.97;;;23.25
69704;BMP280;56967;43.538;-5.646;2023-03-23T15:03:05;100464.06;;;23.47
69704;BMP280;56967;43.538;-5.646;2023-03-23T15:05:35;100462.03;;;23.53
69704;BMP280;56967;43.538;-5.646;2023-03-23T15:08:06;100463.72;;;23.40
69704;BMP280;56967;43.538;-5.646;2023-03-23T15:10:33;100458.41;;;23.18
69704;BMP280;56967;43.538;-5.646;2023-03-23T15:12:59;100456.19;;;22.89
69704;BMP280;56967;43.538;-5.646;2023-03-23T15:17:55;100456.41;;;23.01
69704;BMP280;56967;43.538;-5.646;2023-03-23T15:20:53;100459.91;;;23.32
69704;BMP280;56967;43.538;-5.646;2023-03-23T15:23:26;100445.34;;;23.64
69704;BMP280;56967;43.538;-5.646;2023-03-23T15:25:55;100447.00;;;23.91
69704;BMP280;56967;43.538;-5.646;2023-03-23T15:28:32;100435.84;;;23.58
69704;BMP280;56967;43.538;-5.646;2023-03-23T15:31:04;100428.00;;;23.70
69704;BMP280;56967;43.538;-5.646;2023-03-23T15:33:37;100434.88;;;23.54
69704;BMP280;56967;43.538;-5.646;2023-03-23T15:36:16;100446.34;;;23.77
69704;BMP280;56967;43.538;-5.646;2023-03-23T15:38:46;100437.16;;;23.78
69704;BMP280;56967;43.538;-5.646;2023-03-23T15:41:24;100431.13;;;23.64
69704;BMP280;56967;43.538;-5.646;2023-03-23T15:43:55;100428.06;;;23.09
69704;BMP280;56967;43.538;-5.646;2023-03-23T15:46:26;100428.41;;;22.85
69704;BMP280;56967;43.538;-5.646;2023-03-23T15:51:27;100412.72;;;22.48
69704;BMP280;56967;43.538;-5.646;2023-03-23T15:53:54;100414.75;;;22.51
69704;BMP280;56967;43.538;-5.646;2023-03-23T15:56:21;100420.34;;;22.85
69704;BMP280;56967;43.538;-5.646;2023-03-23T15:58:48;100420.59;;;22.97
69704;BMP280;56967;43.538;-5.646;2023-03-23T16:01:17;100421.56;;;22.79
69704;BMP280;56967;43.538;-5.646;2023-03-23T16:03:48;100422.00;;;22.73
69704;BMP280;56967;43.538;-5.646;2023-03-23T16:06:16;100414.56;;;22.92
69704;BMP280;56967;43.538;-5.646;2023-03-23T16:08:42;100426.25;;;22.96
69704;BMP280;56967;43.538;-5.646;2023-03-23T16:11:12;100426.31;;;22.82
69704;BMP280;56967;43.538;-5.646;2023-03-23T16:13:38;100408.44;;;22.69
69704;BMP280;56967;43.538;-5.646;2023-03-23T16:16:05;100398.69;;;21.66
69704;BMP280;56967;43.538;-5.646;2023-03-23T16:18:33;100378.34;;;21.11
69704;BMP280;56967;43.538;-5.646;2023-03-23T16:20:59;100335.69;;;20.87
69704;BMP280;56967;43.538;-5.646;2023-03-23T16:23:25;100289.31;;;20.96
69704;BMP280;56967;43.538;-5.646;2023-03-23T16:25:51;100238.44;;;20.74
69704;BMP280;56967;43.538;-5.646;2023-03-23T16:28:17;100265.56;;;21.22